Time;durP1;ratioP1;P1;durP2;ratioP2;P2;SDS_P1;SDS_P2;PMS_P1;PMS_P2;Temp;Humidity;BMP_temperature;BMP_pressure;BME280_temperature;BME280_humidity;BME280_pressure;Samples;Min_cycle;Max_cycle;Signal;HPM_P1;HPM_P2
2022/03/31 00:01:03;;;;;;;;;;;6.70;99.90;;;;;;5037894;28;20453;-71
2022/03/31 00:03:31;;;;;;;;;;;6.70;99.90;;;;;;5035845;28;19933;-70
2022/03/31 00:05:59;;;;;;;;;;;6.70;99.90;;;;;;5037524;28;19925;-70
2022/03/31 00:08:27;;;;;;;;;;;6.60;99.90;;;;;;5036946;28;19929;-70
2022/03/31 00:10:55;;;;;;;;;;;6.60;99.90;;;;;;5033480;28;19925;-70
2022/03/31 00:13:25;;;;;;;;;;;6.60;99.90;;;;;;5034556;28;19925;-70
2022/03/31 00:15:56;;;;;;;;;;;6.60;99.90;;;;;;5040226;28;19925;-70
2022/03/31 00:18:25;;;;;;;;;;;6.50;99.90;;;;;;5034397;28;20411;-70
2022/03/31 00:20:52;;;;;;;;;;;6.60;99.90;;;;;;5038588;28;20335;-68
2022/03/31 00:23:20;;;;;;;;;;;6.60;99.90;;;;;;5031436;28;19968;-69
2022/03/31 00:25:48;;;;;;;;;;;6.60;99.90;;;;;;5023413;28;19972;-69
2022/03/31 00:28:16;;;;;;;;;;;6.60;99.90;;;;;;5032732;28;19929;-71
2022/03/31 00:30:46;;;;;;;;;;;6.60;99.90;;;;;;5037498;28;19941;-69
2022/03/31 00:33:14;;;;;;;;;;;6.60;99.90;;;;;;5032349;28;20016;-71
2022/03/31 00:35:41;;;;;;;;;;;6.60;99.90;;;;;;5035155;28;19963;-70
2022/03/31 00:38:10;;;;;;;;;;;6.60;99.90;;;;;;5044405;28;20405;-70
2022/03/31 00:40:38;;;;;;;;;;;6.60;99.90;;;;;;5029032;28;19932;-70
2022/03/31 00:43:07;;;;;;;;;;;6.60;99.90;;;;;;5033310;28;20015;-70
2022/03/31 00:45:46;;;;;;;;;;;6.70;99.90;;;;;;5032382;28;19925;-71
2022/03/31 00:48:16;;;;;;;;;;;6.60;99.90;;;;;;5034210;28;20398;-70
2022/03/31 00:50:44;;;;;;;;;;;6.70;99.90;;;;;;5034666;28;19964;-70
2022/03/31 00:53:12;;;;;;;;;;;6.70;99.90;;;;;;5039272;28;20077;-70
2022/03/31 00:55:55;;;;;;;;;;;6.60;99.90;;;;;;5030002;28;19925;-69
2022/03/31 00:58:23;;;;;;;;;;;6.60;99.90;;;;;;5038769;28;19995;-69
2022/03/31 01:00:51;;;;;;;;;;;6.60;99.90;;;;;;5035307;28;19980;-69
2022/03/31 01:03:20;;;;;;;;;;;6.60;99.90;;;;;;5041153;28;19932;-69
2022/03/31 01:05:48;;;;;;;;;;;6.70;99.90;;;;;;5035635;28;19929;-68
2022/03/31 01:08:17;;;;;;;;;;;6.60;99.90;;;;;;5034568;28;19972;-69
2022/03/31 01:10:46;;;;;;;;;;;6.60;99.90;;;;;;5037474;28;19971;-69
2022/03/31 01:13:14;;;;;;;;;;;6.60;99.90;;;;;;5038213;28;19979;-70
2022/03/31 01:15:42;;;;;;;;;;;6.50;99.90;;;;;;5043200;28;19925;-69
2022/03/31 01:18:10;;;;;;;;;;;6.50;99.90;;;;;;5035175;28;20026;-69
2022/03/31 01:20:40;;;;;;;;;;;6.50;99.90;;;;;;5040853;28;19932;-69
2022/03/31 01:23:13;;;;;;;;;;;6.50;99.90;;;;;;5033783;28;19948;-69
2022/03/31 01:25:42;;;;;;;;;;;6.40;99.90;;;;;;5022612;28;19925;-69
2022/03/31 01:28:09;;;;;;;;;;;6.50;99.90;;;;;;5035471;28;20405;-70
2022/03/31 01:30:38;;;;;;;;;;;6.60;99.90;;;;;;5041737;28;19933;-69
2022/03/31 01:33:05;;;;;;;;;;;6.60;99.90;;;;;;5034091;28;19983;-69
2022/03/31 01:35:33;;;;;;;;;;;6.50;99.90;;;;;;5036339;28;19979;-69
2022/03/31 01:38:01;;;;;;;;;;;6.40;99.90;;;;;;5034930;28;19925;-69
2022/03/31 01:40:31;;;;;;;;;;;6.30;99.90;;;;;;5032272;28;20031;-69
2022/03/31 01:42:58;;;;;;;;;;;6.20;99.90;;;;;;5040750;28;19933;-68
2022/03/31 01:45:26;;;;;;;;;;;6.20;99.90;;;;;;5037962;28;20053;-69
2022/03/31 01:47:55;;;;;;;;;;;6.20;99.90;;;;;;5034203;28;19932;-69
2022/03/31 01:50:22;;;;;;;;;;;6.20;99.90;;;;;;5030849;28;20012;-69
2022/03/31 01:52:50;;;;;;;;;;;6.20;99.90;;;;;;5033754;28;19971;-69
2022/03/31 01:55:18;;;;;;;;;;;6.20;99.90;;;;;;5028088;28;20386;-69
2022/03/31 01:57:47;;;;;;;;;;;6.10;99.90;;;;;;5028211;28;20414;-69
2022/03/31 02:00:15;;;;;;;;;;;6.00;99.90;;;;;;5036067;28;20605;-69
2022/03/31 02:02:43;;;;;;;;;;;6.00;99.90;;;;;;5041381;28;19983;-69
2022/03/31 02:05:11;;;;;;;;;;;5.90;99.90;;;;;;5034052;28;19925;-69
2022/03/31 02:07:39;;;;;;;;;;;5.90;99.90;;;;;;5038703;28;19925;-69
2022/03/31 02:10:09;;;;;;;;;;;5.90;99.90;;;;;;5037111;28;20011;-69
2022/03/31 02:12:37;;;;;;;;;;;5.90;99.90;;;;;;5040250;28;19925;-70
2022/03/31 02:15:07;;;;;;;;;;;5.90;99.90;;;;;;5031811;28;19952;-70
2022/03/31 02:17:34;;;;;;;;;;;5.90;99.90;;;;;;5033442;28;20039;-69
2022/03/31 02:20:02;;;;;;;;;;;5.90;99.90;;;;;;5036035;28;20611;-68
2022/03/31 02:22:30;;;;;;;;;;;5.90;99.90;;;;;;5035222;28;19925;-68
2022/03/31 02:24:58;;;;;;;;;;;5.90;99.90;;;;;;5029217;28;19979;-68
2022/03/31 02:27:25;;;;;;;;;;;5.90;99.90;;;;;;5031440;28;19971;-69
2022/03/31 02:29:53;;;;;;;;;;;5.90;99.90;;;;;;5031914;28;19929;-69
2022/03/31 02:32:22;;;;;;;;;;;6.00;99.90;;;;;;5036681;28;19964;-69
2022/03/31 02:34:51;;;;;;;;;;;6.00;99.90;;;;;;5032348;28;19952;-70
2022/03/31 02:37:18;;;;;;;;;;;5.90;99.90;;;;;;5032572;28;19960;-70
2022/03/31 02:39:46;;;;;;;;;;;5.90;99.90;;;;;;5037232;28;19925;-70
2022/03/31 02:42:14;;;;;;;;;;;5.90;99.90;;;;;;5041253;28;20891;-69
2022/03/31 02:44:42;;;;;;;;;;;5.90;99.90;;;;;;5031165;28;20015;-69
2022/03/31 02:47:10;;;;;;;;;;;5.90;99.90;;;;;;5031311;28;19968;-69
2022/03/31 02:49:39;;;;;;;;;;;5.90;99.90;;;;;;5034126;28;20011;-70
2022/03/31 02:52:08;;;;;;;;;;;5.90;99.90;;;;;;5029559;28;19972;-69
2022/03/31 02:57:21;;;;;;;;;;;5.90;99.90;;;;;;5022647;28;20425;-69
2022/03/31 02:59:49;;;;;;;;;;;5.80;99.90;;;;;;5033521;28;20024;-69
2022/03/31 03:02:16;;;;;;;;;;;5.80;99.90;;;;;;5038329;28;20402;-69
2022/03/31 03:04:45;;;;;;;;;;;5.80;99.90;;;;;;5029971;28;20291;-70
2022/03/31 03:07:14;;;;;;;;;;;5.80;99.90;;;;;;5037035;28;20393;-70
2022/03/31 03:09:42;;;;;;;;;;;5.70;99.90;;;;;;5037913;28;19999;-69
2022/03/31 03:12:10;;;;;;;;;;;5.70;99.90;;;;;;5034820;28;20015;-69
2022/03/31 03:14:38;;;;;;;;;;;5.80;99.90;;;;;;5035669;28;19978;-69
2022/03/31 03:17:06;;;;;;;;;;;5.70;99.90;;;;;;5035941;28;19960;-69
2022/03/31 03:19:34;;;;;;;;;;;5.70;99.90;;;;;;5034233;28;19964;-69
2022/03/31 03:22:03;;;;;;;;;;;5.70;99.90;;;;;;5036304;28;19960;-68
2022/03/31 03:24:31;;;;;;;;;;;5.80;99.90;;;;;;5036470;28;20020;-69
2022/03/31 03:26:59;;;;;;;;;;;5.70;99.90;;;;;;5025293;28;20402;-69
2022/03/31 03:29:26;;;;;;;;;;;5.60;99.90;;;;;;5037230;28;20398;-68
2022/03/31 03:31:54;;;;;;;;;;;5.70;99.90;;;;;;5035821;28;19933;-66
2022/03/31 03:34:22;;;;;;;;;;;5.70;99.90;;;;;;5034021;28;20017;-68
2022/03/31 03:36:49;;;;;;;;;;;5.70;99.90;;;;;;5035595;28;19979;-68
2022/03/31 03:39:19;;;;;;;;;;;5.60;99.90;;;;;;5037862;28;19925;-68
2022/03/31 03:41:46;;;;;;;;;;;5.60;99.90;;;;;;5031166;28;20008;-69
2022/03/31 03:44:14;;;;;;;;;;;5.50;99.90;;;;;;5041018;28;19928;-68
2022/03/31 03:46:43;;;;;;;;;;;5.50;99.90;;;;;;5031002;28;19995;-69
2022/03/31 03:49:11;;;;;;;;;;;5.40;99.90;;;;;;5039050;28;20441;-69
2022/03/31 03:51:38;;;;;;;;;;;5.40;99.90;;;;;;5027595;28;20410;-67
2022/03/31 03:54:06;;;;;;;;;;;5.40;99.90;;;;;;5039840;28;20291;-67
2022/03/31 03:56:35;;;;;;;;;;;5.30;99.90;;;;;;5023201;28;19936;-68
2022/03/31 03:59:03;;;;;;;;;;;5.30;99.90;;;;;;5025141;28;19925;-68
2022/03/31 04:01:31;;;;;;;;;;;5.40;99.90;;;;;;5035422;28;19947;-70
2022/03/31 04:03:58;;;;;;;;;;;5.40;99.90;;;;;;5036011;28;20040;-69
2022/03/31 04:06:26;;;;;;;;;;;5.30;99.90;;;;;;5035006;28;19967;-70
2022/03/31 04:08:54;;;;;;;;;;;5.30;99.90;;;;;;5035755;28;20477;-70
2022/03/31 04:11:21;;;;;;;;;;;5.30;99.90;;;;;;5038188;28;20012;-70
2022/03/31 04:13:51;;;;;;;;;;;5.30;99.90;;;;;;5010041;28;19929;-69
2022/03/31 04:16:19;;;;;;;;;;;5.30;99.90;;;;;;5037593;28;20016;-70
2022/03/31 04:18:47;;;;;;;;;;;5.30;99.90;;;;;;5032202;28;20389;-69
2022/03/31 04:21:15;;;;;;;;;;;5.30;99.90;;;;;;5031045;28;19961;-70
2022/03/31 04:23:43;;;;;;;;;;;5.30;99.90;;;;;;5032088;28;19961;-67
2022/03/31 04:26:10;;;;;;;;;;;5.20;99.90;;;;;;5027672;28;19971;-69
2022/03/31 04:28:38;;;;;;;;;;;5.20;99.90;;;;;;5028795;28;20453;-69
2022/03/31 04:31:07;;;;;;;;;;;5.20;99.90;;;;;;5042694;28;20048;-67
2022/03/31 04:33:35;;;;;;;;;;;5.10;99.90;;;;;;5072373;22;19925;-62
2022/03/31 04:36:03;;;;;;;;;;;5.10;99.90;;;;;;5053164;28;19924;-61
2022/03/31 04:38:31;;;;;;;;;;;5.10;99.90;;;;;;5054527;28;20476;-63
2022/03/31 04:40:58;;;;;;;;;;;5.10;99.90;;;;;;5064838;28;19925;-64
2022/03/31 04:43:26;;;;;;;;;;;5.10;99.90;;;;;;5056031;28;19983;-65
2022/03/31 04:45:54;;;;;;;;;;;5.10;99.90;;;;;;5025673;28;20368;-67
2022/03/31 04:48:23;;;;;;;;;;;5.10;99.90;;;;;;5027674;28;19933;-66
2022/03/31 04:50:51;;;;;;;;;;;5.10;99.90;;;;;;5025430;28;19964;-68
2022/03/31 04:53:19;;;;;;;;;;;5.20;99.90;;;;;;5024021;28;20043;-67
2022/03/31 04:55:47;;;;;;;;;;;5.20;99.90;;;;;;5023501;28;19940;-67
2022/03/31 04:58:15;;;;;;;;;;;5.20;99.90;;;;;;5025439;28;20663;-65
2022/03/31 05:00:42;;;;;;;;;;;5.10;99.90;;;;;;5024284;28;19991;-67
2022/03/31 05:03:10;;;;;;;;;;;5.00;99.90;;;;;;5026841;28;19940;-65
2022/03/31 05:05:39;;;;;;;;;;;5.20;99.90;;;;;;5023499;28;19980;-63
2022/03/31 05:08:08;;;;;;;;;;;5.30;99.90;;;;;;5022160;28;19969;-65
2022/03/31 05:10:36;;;;;;;;;;;5.30;99.90;;;;;;5022457;28;20452;-65
2022/03/31 05:13:04;;;;;;;;;;;5.30;99.90;;;;;;5021069;28;20021;-65
2022/03/31 05:15:32;;;;;;;;;;;5.10;99.90;;;;;;5023283;28;20015;-65
2022/03/31 05:18:01;;;;;;;;;;;5.10;99.90;;;;;;5029522;28;19960;-67
2022/03/31 05:20:29;;;;;;;;;;;5.30;99.90;;;;;;5027432;28;20053;-66
2022/03/31 05:22:58;;;;;;;;;;;5.20;99.90;;;;;;5025520;28;19956;-66
2022/03/31 05:25:26;;;;;;;;;;;5.40;99.90;;;;;;5023214;28;19928;-66
2022/03/31 05:27:54;;;;;;;;;;;5.40;99.90;;;;;;5025691;28;20039;-62
2022/03/31 05:30:22;;;;;;;;;;;5.40;99.90;;;;;;5025828;28;19979;-65
2022/03/31 05:32:51;;;;;;;;;;;5.50;99.90;;;;;;5020542;28;19991;-63
2022/03/31 05:35:19;;;;;;;;;;;5.40;99.90;;;;;;5026090;28;20785;-65
2022/03/31 05:37:47;;;;;;;;;;;5.30;99.90;;;;;;5020804;28;20011;-65
2022/03/31 05:40:17;;;;;;;;;;;5.30;99.90;;;;;;5021133;28;19964;-63
2022/03/31 05:42:44;;;;;;;;;;;5.40;99.90;;;;;;5023297;28;19933;-66
2022/03/31 05:45:13;;;;;;;;;;;5.40;99.90;;;;;;5026281;28;19940;-63
2022/03/31 05:47:41;;;;;;;;;;;5.40;99.90;;;;;;5020040;28;19968;-63
2022/03/31 05:50:10;;;;;;;;;;;5.40;99.90;;;;;;5028190;28;19972;-63
2022/03/31 05:52:38;;;;;;;;;;;5.40;99.90;;;;;;5042997;28;19925;-63
2022/03/31 05:55:06;;;;;;;;;;;5.40;99.90;;;;;;5041670;28;20302;-62
2022/03/31 05:57:36;;;;;;;;;;;5.40;99.90;;;;;;5057623;28;20377;-63
2022/03/31 06:00:05;;;;;;;;;;;5.40;99.90;;;;;;5049537;28;19975;-63
2022/03/31 06:02:33;;;;;;;;;;;5.40;99.90;;;;;;5061074;28;19978;-63
2022/03/31 06:05:16;;;;;;;;;;;5.60;99.90;;;;;;5072293;28;19932;-63
2022/03/31 06:07:44;;;;;;;;;;;5.60;99.90;;;;;;5055776;28;19946;-61
2022/03/31 06:10:12;;;;;;;;;;;5.70;99.90;;;;;;5063025;28;19974;-64
2022/03/31 06:12:41;;;;;;;;;;;5.90;99.90;;;;;;5070065;28;20022;-62
2022/03/31 06:15:09;;;;;;;;;;;6.00;99.90;;;;;;5053330;28;19928;-64
2022/03/31 06:17:40;;;;;;;;;;;5.90;99.90;;;;;;5053116;28;20353;-64
2022/03/31 06:20:09;;;;;;;;;;;5.80;99.90;;;;;;5054609;28;20011;-64
2022/03/31 06:22:37;;;;;;;;;;;5.80;99.90;;;;;;5058473;28;19932;-62
2022/03/31 06:25:10;;;;;;;;;;;6.00;99.90;;;;;;5047737;28;19929;-64
2022/03/31 06:27:39;;;;;;;;;;;5.90;99.90;;;;;;5054108;28;19925;-63
2022/03/31 06:30:08;;;;;;;;;;;5.80;99.90;;;;;;5072016;28;19924;-62
2022/03/31 06:32:36;;;;;;;;;;;5.70;99.90;;;;;;5070676;28;19924;-64
2022/03/31 06:35:04;;;;;;;;;;;5.70;99.90;;;;;;5071543;28;19992;-65
2022/03/31 06:37:33;;;;;;;;;;;5.70;99.90;;;;;;5071457;28;19924;-65
2022/03/31 06:40:01;;;;;;;;;;;5.60;99.90;;;;;;5071477;28;20368;-64
2022/03/31 06:42:28;;;;;;;;;;;5.70;99.90;;;;;;5070786;28;19924;-63
2022/03/31 06:44:57;;;;;;;;;;;5.70;99.90;;;;;;5071521;28;19924;-65
2022/03/31 06:47:46;;;;;;;;;;;5.70;99.90;;;;;;5071299;28;20027;-65
2022/03/31 06:50:14;;;;;;;;;;;5.70;99.90;;;;;;5071345;28;20023;-64
2022/03/31 06:52:42;;;;;;;;;;;5.80;99.90;;;;;;5070182;28;19952;-64
2022/03/31 06:55:10;;;;;;;;;;;5.90;99.90;;;;;;5064289;28;20036;-64
2022/03/31 06:57:37;;;;;;;;;;;5.90;99.90;;;;;;5050742;28;19925;-64
2022/03/31 07:00:06;;;;;;;;;;;5.80;99.90;;;;;;5052017;28;19947;-64
2022/03/31 07:02:33;;;;;;;;;;;5.80;99.90;;;;;;5051269;28;19924;-66
2022/03/31 07:05:03;;;;;;;;;;;5.90;99.90;;;;;;5052013;28;20295;-63
2022/03/31 07:07:30;;;;;;;;;;;5.90;99.90;;;;;;5051769;28;20038;-64
2022/03/31 07:10:00;;;;;;;;;;;6.00;99.90;;;;;;5052055;28;19924;-65
2022/03/31 07:12:28;;;;;;;;;;;5.90;99.90;;;;;;5051181;28;20413;-64
2022/03/31 07:14:56;;;;;;;;;;;5.90;99.90;;;;;;5051770;28;19971;-64
2022/03/31 07:17:23;;;;;;;;;;;6.00;99.90;;;;;;5051686;28;20020;-64
2022/03/31 07:19:51;;;;;;;;;;;6.10;99.90;;;;;;5052009;28;20318;-63
2022/03/31 07:22:20;;;;;;;;;;;6.10;99.90;;;;;;5051337;28;19951;-65
2022/03/31 07:24:48;;;;;;;;;;;6.10;99.90;;;;;;5050129;28;19925;-64
2022/03/31 07:27:16;;;;;;;;;;;6.10;99.90;;;;;;5040371;28;19975;-64
2022/03/31 07:29:44;;;;;;;;;;;6.20;99.90;;;;;;5070814;28;19967;-64
2022/03/31 07:32:11;;;;;;;;;;;6.10;99.90;;;;;;5069847;28;19975;-65
2022/03/31 07:34:39;;;;;;;;;;;6.10;99.90;;;;;;5070867;28;19928;-64
2022/03/31 07:37:07;;;;;;;;;;;6.20;99.90;;;;;;5070661;28;19925;-64
2022/03/31 07:39:38;;;;;;;;;;;6.20;99.90;;;;;;5070454;28;19956;-65
2022/03/31 07:42:06;;;;;;;;;;;6.20;99.90;;;;;;5069907;28;19964;-63
2022/03/31 07:44:33;;;;;;;;;;;6.30;99.90;;;;;;5070889;28;19968;-64
2022/03/31 07:47:01;;;;;;;;;;;6.50;99.90;;;;;;5056498;28;19963;-64
2022/03/31 07:49:29;;;;;;;;;;;6.50;99.90;;;;;;5051538;28;19956;-63
2022/03/31 07:52:01;;;;;;;;;;;6.50;99.90;;;;;;5050819;28;20027;-65
2022/03/31 07:54:29;;;;;;;;;;;6.60;99.90;;;;;;5051232;28;19976;-64
2022/03/31 07:56:58;;;;;;;;;;;6.50;99.90;;;;;;5049352;28;19924;-63
2022/03/31 07:59:32;;;;;;;;;;;6.60;99.90;;;;;;5070577;28;19924;-64
2022/03/31 08:02:00;;;;;;;;;;;6.70;99.90;;;;;;5070008;28;20027;-65
2022/03/31 08:04:28;;;;;;;;;;;6.70;99.90;;;;;;5072100;28;19931;-66
2022/03/31 08:06:56;;;;;;;;;;;6.70;99.90;;;;;;5074178;28;19928;-65
2022/03/31 08:09:24;;;;;;;;;;;6.70;99.90;;;;;;5074393;28;19987;-64
2022/03/31 08:11:52;;;;;;;;;;;6.80;99.90;;;;;;5074182;28;19925;-64
2022/03/31 08:14:21;;;;;;;;;;;6.90;99.90;;;;;;5073877;28;20405;-64
2022/03/31 08:16:49;;;;;;;;;;;7.00;99.90;;;;;;5074059;28;19970;-66
2022/03/31 08:19:17;;;;;;;;;;;7.00;99.90;;;;;;5073992;28;19924;-66
2022/03/31 08:21:46;;;;;;;;;;;7.20;99.90;;;;;;5074066;28;20405;-64
2022/03/31 08:24:14;;;;;;;;;;;7.30;99.90;;;;;;5072667;28;19929;-65
2022/03/31 08:26:43;;;;;;;;;;;7.20;99.90;;;;;;5049877;28;19925;-64
2022/03/31 08:29:11;;;;;;;;;;;7.20;99.90;;;;;;5047403;28;19979;-64
2022/03/31 08:31:40;;;;;;;;;;;7.20;99.90;;;;;;5065306;28;19924;-65
2022/03/31 08:34:08;;;;;;;;;;;7.10;99.90;;;;;;5066128;28;19931;-64
2022/03/31 08:36:36;;;;;;;;;;;7.10;99.90;;;;;;5054517;28;19967;-66
2022/03/31 08:39:05;;;;;;;;;;;7.00;99.90;;;;;;5054430;28;20473;-66
2022/03/31 08:41:33;;;;;;;;;;;6.90;99.90;;;;;;5054330;28;19968;-64
2022/03/31 08:44:01;;;;;;;;;;;7.00;99.90;;;;;;5053588;28;20444;-64
2022/03/31 08:46:30;;;;;;;;;;;7.10;99.90;;;;;;5054422;28;19925;-63
2022/03/31 08:49:00;;;;;;;;;;;7.10;99.90;;;;;;5054784;28;19925;-61
2022/03/31 08:51:28;;;;;;;;;;;7.10;99.90;;;;;;5054398;28;19925;-63
2022/03/31 08:53:56;;;;;;;;;;;7.20;99.90;;;;;;5053561;28;19956;-62
2022/03/31 08:56:23;;;;;;;;;;;7.20;99.90;;;;;;5048597;28;19960;-65
2022/03/31 08:59:11;;;;;;;;;;;7.20;99.90;;;;;;5057844;28;19931;-64
2022/03/31 09:01:39;;;;;;;;;;;7.20;99.90;;;;;;5073455;28;20019;-62
2022/03/31 09:04:18;;;;;;;;;;;7.30;99.90;;;;;;5073264;28;19924;-62
2022/03/31 09:06:48;;;;;;;;;;;7.30;99.90;;;;;;5073270;28;19925;-62
2022/03/31 09:09:17;;;;;;;;;;;7.40;99.90;;;;;;5073021;28;20015;-63
2022/03/31 09:11:46;;;;;;;;;;;7.50;99.90;;;;;;5073209;28;20031;-63
2022/03/31 09:14:27;;;;;;;;;;;7.60;99.90;;;;;;5072613;28;20305;-62
2022/03/31 09:16:55;;;;;;;;;;;7.60;99.90;;;;;;5073255;28;19954;-62
2022/03/31 09:19:34;;;;;;;;;;;7.50;99.90;;;;;;5048254;28;19924;-63
2022/03/31 09:22:02;;;;;;;;;;;7.50;99.90;;;;;;5053573;28;19924;-70
2022/03/31 09:24:31;;;;;;;;;;;7.40;99.90;;;;;;5053881;28;19924;-63
2022/03/31 09:27:01;;;;;;;;;;;7.50;99.90;;;;;;5054136;28;19933;-61
2022/03/31 09:29:32;;;;;;;;;;;7.50;99.90;;;;;;5068133;28;20326;-62
2022/03/31 09:32:07;;;;;;;;;;;7.50;99.90;;;;;;5072094;28;19971;-64
2022/03/31 09:34:40;;;;;;;;;;;7.60;99.90;;;;;;5072912;28;20396;-62
2022/03/31 09:37:08;;;;;;;;;;;7.70;99.90;;;;;;5072620;28;20019;-64
2022/03/31 09:39:37;;;;;;;;;;;7.70;99.90;;;;;;5072560;28;19925;-63
2022/03/31 09:42:10;;;;;;;;;;;7.70;99.90;;;;;;5071691;28;19978;-63
2022/03/31 09:44:38;;;;;;;;;;;7.70;99.90;;;;;;5072325;28;19947;-60
2022/03/31 09:47:06;;;;;;;;;;;7.70;99.90;;;;;;5072410;28;20418;-62
2022/03/31 09:49:34;;;;;;;;;;;7.70;99.90;;;;;;5072302;28;19928;-62
2022/03/31 09:52:04;;;;;;;;;;;7.80;99.90;;;;;;5071759;28;20376;-66
2022/03/31 09:54:33;;;;;;;;;;;7.80;99.90;;;;;;5071900;28;19963;-64
2022/03/31 09:57:02;;;;;;;;;;;7.70;99.90;;;;;;5061067;28;19925;-61
2022/03/31 09:59:31;;;;;;;;;;;7.70;99.90;;;;;;5054959;28;19936;-61
2022/03/31 10:01:58;;;;;;;;;;;7.70;99.90;;;;;;5052601;28;19947;-62
2022/03/31 10:04:27;;;;;;;;;;;7.70;99.90;;;;;;5052708;28;19924;-63
2022/03/31 10:06:56;;;;;;;;;;;7.70;99.90;;;;;;5053137;28;19929;-63
2022/03/31 10:09:25;;;;;;;;;;;7.70;99.90;;;;;;5052935;28;19955;-63
2022/03/31 10:11:58;;;;;;;;;;;7.80;99.90;;;;;;5052798;28;20023;-63
2022/03/31 10:14:30;;;;;;;;;;;7.90;99.90;;;;;;5052811;28;19979;-63
2022/03/31 10:16:58;;;;;;;;;;;7.90;99.90;;;;;;5052858;28;20361;-63
2022/03/31 10:19:30;;;;;;;;;;;8.00;99.90;;;;;;5052467;28;19929;-63
2022/03/31 10:22:01;;;;;;;;;;;8.10;99.90;;;;;;5052462;28;19964;-62
2022/03/31 10:24:42;;;;;;;;;;;8.00;99.90;;;;;;5046509;28;19925;-63
2022/03/31 10:27:10;;;;;;;;;;;8.00;99.90;;;;;;5046194;28;19968;-62
2022/03/31 10:29:39;;;;;;;;;;;8.00;99.90;;;;;;5065471;28;20011;-63
2022/03/31 10:32:17;;;;;;;;;;;8.00;99.90;;;;;;5070739;28;20271;-63
2022/03/31 10:34:48;;;;;;;;;;;8.00;99.90;;;;;;5072909;28;20344;-63
2022/03/31 10:37:18;;;;;;;;;;;7.90;99.90;;;;;;5071708;28;20026;-63
2022/03/31 10:39:56;;;;;;;;;;;7.90;99.90;;;;;;5071295;28;19990;-63
2022/03/31 10:42:24;;;;;;;;;;;8.00;99.90;;;;;;5070766;28;19960;-63
2022/03/31 10:45:02;;;;;;;;;;;8.10;99.90;;;;;;5071512;28;20377;-63
2022/03/31 10:47:32;;;;;;;;;;;8.30;99.90;;;;;;5071535;28;19924;-63
2022/03/31 10:49:59;;;;;;;;;;;8.40;99.90;;;;;;5071355;28;20389;-63
2022/03/31 10:52:28;;;;;;;;;;;8.50;99.90;;;;;;5071128;28;19955;-61
2022/03/31 10:55:06;;;;;;;;;;;8.60;99.90;;;;;;5071224;28;20305;-62
2022/03/31 10:57:41;;;;;;;;;;;8.60;99.90;;;;;;5062943;28;19978;-65
2022/03/31 11:00:09;;;;;;;;;;;8.80;99.90;;;;;;5054777;28;19982;-63
2022/03/31 11:02:40;;;;;;;;;;;8.80;99.90;;;;;;5051450;28;20365;-62
2022/03/31 11:05:27;;;;;;;;;;;8.90;99.90;;;;;;5052053;28;19974;-62
2022/03/31 11:08:02;;;;;;;;;;;8.90;99.90;;;;;;5051933;28;19932;-63
2022/03/31 11:10:40;;;;;;;;;;;8.90;99.90;;;;;;5051905;28;19925;-62
2022/03/31 11:13:08;;;;;;;;;;;9.00;99.90;;;;;;5051258;28;20027;-63
2022/03/31 11:15:37;;;;;;;;;;;9.10;99.90;;;;;;5051736;28;20032;-63
2022/03/31 11:18:05;;;;;;;;;;;9.00;99.90;;;;;;5051712;28;19995;-63
2022/03/31 11:20:32;;;;;;;;;;;9.20;99.90;;;;;;5051848;28;20451;-63
2022/03/31 11:23:03;;;;;;;;;;;9.50;99.90;;;;;;5050979;28;19972;-63
2022/03/31 11:25:32;;;;;;;;;;;9.70;99.90;;;;;;5045788;28;20463;-63
2022/03/31 11:28:07;;;;;;;;;;;9.80;99.90;;;;;;5042175;28;19988;-64
2022/03/31 11:30:35;;;;;;;;;;;10.00;99.90;;;;;;5070844;28;19925;-61
2022/03/31 11:33:03;;;;;;;;;;;10.00;99.90;;;;;;5070088;28;20011;-63
2022/03/31 11:35:31;;;;;;;;;;;10.00;99.90;;;;;;5071123;28;20315;-63
2022/03/31 11:38:00;;;;;;;;;;;10.00;99.90;;;;;;5070557;28;19928;-63
2022/03/31 11:40:29;;;;;;;;;;;9.90;99.90;;;;;;5074333;28;19925;-63
2022/03/31 11:42:59;;;;;;;;;;;9.80;99.90;;;;;;5073894;28;20019;-64
2022/03/31 11:45:29;;;;;;;;;;;9.80;99.90;;;;;;5074841;28;19946;-63
2022/03/31 11:47:58;;;;;;;;;;;9.80;99.90;;;;;;5074650;28;20023;-62
2022/03/31 11:50:26;;;;;;;;;;;9.90;99.90;;;;;;5074808;28;20447;-62
2022/03/31 11:52:54;;;;;;;;;;;9.90;99.90;;;;;;5073947;28;19972;-63
2022/03/31 11:55:22;;;;;;;;;;;9.80;99.90;;;;;;5072340;28;20464;-62
2022/03/31 11:57:50;;;;;;;;;;;9.70;99.90;;;;;;5054761;28;20382;-62
2022/03/31 12:00:24;;;;;;;;;;;9.70;99.90;;;;;;5066651;28;20389;-63
2022/03/31 12:02:56;;;;;;;;;;;9.60;99.90;;;;;;5073675;28;19925;-63
2022/03/31 12:05:24;;;;;;;;;;;9.60;99.90;;;;;;5074308;28;19928;-63
2022/03/31 12:07:52;;;;;;;;;;;9.70;99.90;;;;;;5074216;28;20050;-64
2022/03/31 12:10:20;;;;;;;;;;;9.70;99.90;;;;;;5074146;28;19968;-63
2022/03/31 12:12:49;;;;;;;;;;;9.60;99.90;;;;;;5073463;28;19975;-64
2022/03/31 12:15:21;;;;;;;;;;;9.50;99.90;;;;;;5074384;28;20239;-63
2022/03/31 12:18:00;;;;;;;;;;;9.40;99.90;;;;;;5073952;28;19924;-63
2022/03/31 12:20:28;;;;;;;;;;;9.40;99.90;;;;;;5073955;28;19978;-63
2022/03/31 12:22:56;;;;;;;;;;;9.60;99.90;;;;;;5073270;28;20049;-63
2022/03/31 12:25:27;;;;;;;;;;;9.60;99.90;;;;;;5071421;28;20019;-63
2022/03/31 12:27:57;;;;;;;;;;;9.60;99.90;;;;;;5041388;28;20412;-63
2022/03/31 12:30:26;;;;;;;;;;;9.90;99.90;;;;;;5072228;28;19931;-64
2022/03/31 12:32:55;;;;;;;;;;;9.60;99.90;;;;;;5072787;28;19952;-63
2022/03/31 12:35:34;;;;;;;;;;;9.50;99.90;;;;;;5074264;28;19956;-62
2022/03/31 12:38:02;;;;;;;;;;;9.50;99.90;;;;;;5073654;28;20416;-63
2022/03/31 12:40:30;;;;;;;;;;;9.50;99.90;;;;;;5073605;28;19924;-63
2022/03/31 12:42:58;;;;;;;;;;;9.60;99.90;;;;;;5072850;28;19956;-64
2022/03/31 12:45:28;;;;;;;;;;;9.70;99.90;;;;;;5073593;28;20392;-63
2022/03/31 12:47:56;;;;;;;;;;;9.70;99.90;;;;;;5073527;28;20365;-63
2022/03/31 12:50:25;;;;;;;;;;;9.80;99.90;;;;;;5073166;28;19925;-64
2022/03/31 12:52:55;;;;;;;;;;;9.80;99.90;;;;;;5072844;28;19947;-62
2022/03/31 12:55:29;;;;;;;;;;;9.80;99.90;;;;;;5071498;28;19964;-64
2022/03/31 12:57:59;;;;;;;;;;;9.70;99.90;;;;;;5052071;28;19929;-63
2022/03/31 13:00:28;;;;;;;;;;;9.70;99.90;;;;;;5073151;28;19979;-63
2022/03/31 13:02:56;;;;;;;;;;;9.70;99.90;;;;;;5072646;28;19925;-63
2022/03/31 13:05:25;;;;;;;;;;;9.70;99.90;;;;;;5073621;28;20027;-63
2022/03/31 13:07:53;;;;;;;;;;;9.90;99.90;;;;;;5073777;28;20015;-63
2022/03/31 13:10:23;;;;;;;;;;;10.00;99.90;;;;;;5073368;28;20287;-63
2022/03/31 13:12:52;;;;;;;;;;;10.10;99.90;;;;;;5072295;28;19924;-63
2022/03/31 13:15:21;;;;;;;;;;;10.10;99.90;;;;;;5073256;28;19967;-63
2022/03/31 13:17:49;;;;;;;;;;;10.00;99.90;;;;;;5073316;28;20356;-63
2022/03/31 13:20:19;;;;;;;;;;;10.00;99.90;;;;;;5073079;28;19925;-63
2022/03/31 13:22:49;;;;;;;;;;;9.90;99.90;;;;;;5072186;28;19940;-63
2022/03/31 13:25:17;;;;;;;;;;;9.70;99.90;;;;;;5071444;28;20050;-64
2022/03/31 13:27:46;;;;;;;;;;;9.70;99.90;;;;;;5052832;28;19939;-63
2022/03/31 13:30:14;;;;;;;;;;;9.70;99.90;;;;;;5052980;28;19935;-63
2022/03/31 13:32:43;;;;;;;;;;;9.60;99.90;;;;;;5052705;28;19933;-63
2022/03/31 13:35:11;;;;;;;;;;;9.60;99.90;;;;;;5053532;28;19929;-63
2022/03/31 13:37:40;;;;;;;;;;;9.60;99.90;;;;;;5053471;28;19929;-63
2022/03/31 13:40:08;;;;;;;;;;;9.60;99.90;;;;;;5053252;28;20006;-63
2022/03/31 13:42:38;;;;;;;;;;;9.60;99.90;;;;;;5052581;28;19936;-63
2022/03/31 13:45:11;;;;;;;;;;;9.40;99.90;;;;;;5053664;28;20019;-63
2022/03/31 13:47:42;;;;;;;;;;;9.40;99.90;;;;;;5053332;28;19925;-63
2022/03/31 13:50:10;;;;;;;;;;;9.50;99.90;;;;;;5053372;28;20035;-62
2022/03/31 13:52:38;;;;;;;;;;;9.60;99.90;;;;;;5052773;28;20190;-63
2022/03/31 13:55:07;;;;;;;;;;;9.70;99.90;;;;;;5053183;28;19971;-63
2022/03/31 14:03:07;;;;;;;;;;;9.80;99.90;;;;;;5051768;28;20306;-63
2022/03/31 14:05:35;;;;;;;;;;;9.80;99.90;;;;;;5053286;28;19925;-63
2022/03/31 14:08:03;;;;;;;;;;;9.80;99.90;;;;;;5053067;28;19925;-63
2022/03/31 14:10:31;;;;;;;;;;;9.80;99.90;;;;;;5052887;28;19931;-63
2022/03/31 14:12:59;;;;;;;;;;;9.90;99.90;;;;;;5051883;28;20298;-63
2022/03/31 14:15:28;;;;;;;;;;;10.00;99.90;;;;;;5053051;28;19940;-62
2022/03/31 14:17:58;;;;;;;;;;;10.00;99.90;;;;;;5052899;28;20378;-63
2022/03/31 14:20:31;;;;;;;;;;;10.00;99.90;;;;;;5052740;28;19932;-63
2022/03/31 14:22:59;;;;;;;;;;;9.90;99.90;;;;;;5052003;28;19971;-62
2022/03/31 14:25:27;;;;;;;;;;;9.80;99.90;;;;;;5056149;28;19968;-63
2022/03/31 14:27:55;;;;;;;;;;;9.70;99.90;;;;;;5046503;28;19924;-63
2022/03/31 14:30:23;;;;;;;;;;;9.80;99.90;;;;;;5047113;28;19983;-63
2022/03/31 14:32:52;;;;;;;;;;;9.60;99.90;;;;;;5065668;28;19928;-63
2022/03/31 14:35:19;;;;;;;;;;;9.60;99.90;;;;;;5071529;28;19924;-63
2022/03/31 14:37:47;;;;;;;;;;;9.50;99.90;;;;;;5071613;28;19968;-63
2022/03/31 14:40:16;;;;;;;;;;;9.40;99.90;;;;;;5071407;28;19928;-63
2022/03/31 14:42:44;;;;;;;;;;;9.50;99.90;;;;;;5070436;28;20023;-62
2022/03/31 14:45:13;;;;;;;;;;;9.50;99.90;;;;;;5071560;28;20053;-64
2022/03/31 14:47:42;;;;;;;;;;;9.60;99.90;;;;;;5071337;28;19954;-63